sensor_id;sensor_type;location;lat;lon;timestamp;temperature;humidity
3380;DHT22;1703;51.964;7.642;2022-09-13T00:01:08;19.30;99.90
3380;DHT22;1703;51.964;7.642;2022-09-13T00:03:34;19.30;99.90
3380;DHT22;1703;51.964;7.642;2022-09-13T00:06:09;19.40;99.90
3380;DHT22;1703;51.964;7.642;2022-09-13T00:08:38;19.40;99.90
3380;DHT22;1703;51.964;7.642;2022-09-13T00:11:05;19.30;99.90
3380;DHT22;1703;51.964;7.642;2022-09-13T00:13:32;19.30;99.90
3380;DHT22;1703;51.964;7.642;2022-09-13T00:15:59;19.40;99.90
3380;DHT22;1703;51.964;7.642;2022-09-13T00:18:28;19.40;99.90
3380;DHT22;1703;51.964;7.642;2022-09-13T00:21:03;19.40;99.90
3380;DHT22;1703;51.964;7.642;2022-09-13T00:23:31;19.40;99.90
3380;DHT22;1703;51.964;7.642;2022-09-13T00:26:07;19.40;99.90
3380;DHT22;1703;51.964;7.642;2022-09-13T00:28:34;19.50;99.90
3380;DHT22;1703;51.964;7.642;2022-09-13T00:31:02;19.50;99.90
3380;DHT22;1703;51.964;7.642;2022-09-13T00:33:29;19.50;99.90
3380;DHT22;1703;51.964;7.642;2022-09-13T00:35:55;19.50;99.90
3380;DHT22;1703;51.964;7.642;2022-09-13T00:38:22;19.60;99.90
3380;DHT22;1703;51.964;7.642;2022-09-13T00:40:49;19.50;99.90
3380;DHT22;1703;51.964;7.642;2022-09-13T00:43:20;19.60;99.90
3380;DHT22;1703;51.964;7.642;2022-09-13T00:45:47;19.60;99.90
3380;DHT22;1703;51.964;7.642;2022-09-13T00:48:18;19.60;99.90
3380;DHT22;1703;51.964;7.642;2022-09-13T00:50:47;19.60;99.90
3380;DHT22;1703;51.964;7.642;2022-09-13T00:53:19;19.60;99.90
3380;DHT22;1703;51.964;7.642;2022-09-13T00:55:50;19.60;99.90
3380;DHT22;1703;51.964;7.642;2022-09-13T00:58:22;19.60;99.90
3380;DHT22;1703;51.964;7.642;2022-09-13T01:00:50;19.60;99.90
3380;DHT22;1703;51.964;7.642;2022-09-13T01:03:19;19.60;99.90
3380;DHT22;1703;51.964;7.642;2022-09-13T01:05:50;19.60;99.90
3380;DHT22;1703;51.964;7.642;2022-09-13T01:08:20;19.60;99.90
3380;DHT22;1703;51.964;7.642;2022-09-13T01:10:48;19.60;99.90
3380;DHT22;1703;51.964;7.642;2022-09-13T01:13:18;19.60;99.90
3380;DHT22;1703;51.964;7.642;2022-09-13T01:15:47;19.60;99.90
3380;DHT22;1703;51.964;7.642;2022-09-13T01:18:47;19.60;99.90
3380;DHT22;1703;51.964;7.642;2022-09-13T01:21:49;19.50;99.90
3380;DHT22;1703;51.964;7.642;2022-09-13T01:24:41;19.50;99.90
3380;DHT22;1703;51.964;7.642;2022-09-13T01:27:31;19.50;99.90
3380;DHT22;1703;51.964;7.642;2022-09-13T01:30:18;19.50;99.90
3380;DHT22;1703;51.964;7.642;2022-09-13T01:33:15;19.40;99.90
3380;DHT22;1703;51.964;7.642;2022-09-13T01:35:55;19.50;99.90
3380;DHT22;1703;51.964;7.642;2022-09-13T01:38:44;19.40;99.90
3380;DHT22;1703;51.964;7.642;2022-09-13T01:41:39;19.40;99.90
3380;DHT22;1703;51.964;7.642;2022-09-13T01:44:15;19.40;99.90
3380;DHT22;1703;51.964;7.642;2022-09-13T01:46:50;19.40;99.90
3380;DHT22;1703;51.964;7.642;2022-09-13T01:49:22;19.40;99.90
3380;DHT22;1703;51.964;7.642;2022-09-13T01:51:55;19.40;99.90
3380;DHT22;1703;51.964;7.642;2022-09-13T01:54:30;19.40;99.90
3380;DHT22;1703;51.964;7.642;2022-09-13T01:57:05;19.40;99.90
3380;DHT22;1703;51.964;7.642;2022-09-13T01:59:38;19.40;99.90
3380;DHT22;1703;51.964;7.642;2022-09-13T02:02:15;19.40;99.90
3380;DHT22;1703;51.964;7.642;2022-09-13T02:04:49;19.40;99.90
3380;DHT22;1703;51.964;7.642;2022-09-13T02:07:21;19.40;99.90
3380;DHT22;1703;51.964;7.642;2022-09-13T02:09:55;19.40;99.90
3380;DHT22;1703;51.964;7.642;2022-09-13T02:12:25;19.30;99.90
3380;DHT22;1703;51.964;7.642;2022-09-13T02:14:58;19.30;99.90
3380;DHT22;1703;51.964;7.642;2022-09-13T02:17:34;19.40;99.90
3380;DHT22;1703;51.964;7.642;2022-09-13T02:20:06;19.40;99.90
3380;DHT22;1703;51.964;7.642;2022-09-13T02:22:38;19.40;99.90
3380;DHT22;1703;51.964;7.642;2022-09-13T02:25:09;19.40;99.90
3380;DHT22;1703;51.964;7.642;2022-09-13T02:27:40;19.30;99.90
3380;DHT22;1703;51.964;7.642;2022-09-13T02:30:10;19.30;99.90
3380;DHT22;1703;51.964;7.642;2022-09-13T02:32:42;19.30;99.90
3380;DHT22;1703;51.964;7.642;2022-09-13T02:35:12;19.30;99.90
3380;DHT22;1703;51.964;7.642;2022-09-13T02:37:44;19.30;99.90
3380;DHT22;1703;51.964;7.642;2022-09-13T02:40:16;19.30;99.90
3380;DHT22;1703;51.964;7.642;2022-09-13T02:42:51;19.30;99.90
3380;DHT22;1703;51.964;7.642;2022-09-13T02:45:21;19.30;99.90
3380;DHT22;1703;51.964;7.642;2022-09-13T02:47:53;19.30;99.90
3380;DHT22;1703;51.964;7.642;2022-09-13T02:50:32;19.30;99.90
3380;DHT22;1703;51.964;7.642;2022-09-13T02:53:11;19.20;99.90
3380;DHT22;1703;51.964;7.642;2022-09-13T02:55:49;19.20;99.90
3380;DHT22;1703;51.964;7.642;2022-09-13T02:58:20;19.20;99.90
3380;DHT22;1703;51.964;7.642;2022-09-13T03:00:48;19.20;99.90
3380;DHT22;1703;51.964;7.642;2022-09-13T03:03:16;19.20;99.90
3380;DHT22;1703;51.964;7.642;2022-09-13T03:05:43;19.20;99.90
3380;DHT22;1703;51.964;7.642;2022-09-13T03:08:12;19.20;99.90
3380;DHT22;1703;51.964;7.642;2022-09-13T03:10:47;19.20;99.90
3380;DHT22;1703;51.964;7.642;2022-09-13T03:13:39;19.20;99.90
3380;DHT22;1703;51.964;7.642;2022-09-13T03:16:23;19.20;99.90
3380;DHT22;1703;51.964;7.642;2022-09-13T03:19:07;19.20;99.90
3380;DHT22;1703;51.964;7.642;2022-09-13T03:21:54;19.20;99.90
3380;DHT22;1703;51.964;7.642;2022-09-13T03:24:27;19.20;99.90
3380;DHT22;1703;51.964;7.642;2022-09-13T03:27:08;19.10;99.90
3380;DHT22;1703;51.964;7.642;2022-09-13T03:29:47;19.10;99.90
3380;DHT22;1703;51.964;7.642;2022-09-13T03:32:27;19.10;99.90
3380;DHT22;1703;51.964;7.642;2022-09-13T03:35:05;19.00;99.90
3380;DHT22;1703;51.964;7.642;2022-09-13T03:37:38;19.10;99.90
3380;DHT22;1703;51.964;7.642;2022-09-13T03:40:11;19.00;99.90
3380;DHT22;1703;51.964;7.642;2022-09-13T03:42:43;19.00;99.90
3380;DHT22;1703;51.964;7.642;2022-09-13T03:45:12;19.00;99.90
3380;DHT22;1703;51.964;7.642;2022-09-13T03:47:42;19.00;99.90
3380;DHT22;1703;51.964;7.642;2022-09-13T03:50:16;19.10;99.90
3380;DHT22;1703;51.964;7.642;2022-09-13T03:52:45;19.10;99.90
3380;DHT22;1703;51.964;7.642;2022-09-13T03:55:12;19.00;99.90
3380;DHT22;1703;51.964;7.642;2022-09-13T03:57:39;19.10;99.90
3380;DHT22;1703;51.964;7.642;2022-09-13T04:00:07;19.10;99.90
3380;DHT22;1703;51.964;7.642;2022-09-13T04:02:37;19.10;99.90
3380;DHT22;1703;51.964;7.642;2022-09-13T04:05:04;19.10;99.90
3380;DHT22;1703;51.964;7.642;2022-09-13T04:07:32;19.10;99.90
3380;DHT22;1703;51.964;7.642;2022-09-13T04:09:59;19.00;99.90
3380;DHT22;1703;51.964;7.642;2022-09-13T04:12:26;19.10;99.90
3380;DHT22;1703;51.964;7.642;2022-09-13T04:14:56;19.10;99.90
3380;DHT22;1703;51.964;7.642;2022-09-13T04:17:23;19.20;99.90
3380;DHT22;1703;51.964;7.642;2022-09-13T04:19:50;19.30;99.90
3380;DHT22;1703;51.964;7.642;2022-09-13T04:22:17;19.30;99.90
3380;DHT22;1703;51.964;7.642;2022-09-13T04:24:48;19.30;99.90
3380;DHT22;1703;51.964;7.642;2022-09-13T04:27:17;19.30;99.90
3380;DHT22;1703;51.964;7.642;2022-09-13T04:29:44;19.20;99.90
3380;DHT22;1703;51.964;7.642;2022-09-13T04:35:57;19.20;99.90
3380;DHT22;1703;51.964;7.642;2022-09-13T04:38:24;19.20;99.90
3380;DHT22;1703;51.964;7.642;2022-09-13T04:40:53;19.30;99.90
3380;DHT22;1703;51.964;7.642;2022-09-13T04:43:21;19.20;99.90
3380;DHT22;1703;51.964;7.642;2022-09-13T04:45:48;19.20;99.90
3380;DHT22;1703;51.964;7.642;2022-09-13T04:48:16;19.20;99.90
3380;DHT22;1703;51.964;7.642;2022-09-13T04:50:43;19.10;99.90
3380;DHT22;1703;51.964;7.642;2022-09-13T04:53:10;19.00;99.90
3380;DHT22;1703;51.964;7.642;2022-09-13T04:55:37;19.00;99.90
3380;DHT22;1703;51.964;7.642;2022-09-13T04:58:05;19.00;99.90
3380;DHT22;1703;51.964;7.642;2022-09-13T05:00:32;19.00;99.90
3380;DHT22;1703;51.964;7.642;2022-09-13T05:02:59;19.00;99.90
3380;DHT22;1703;51.964;7.642;2022-09-13T05:05:26;19.00;99.90
3380;DHT22;1703;51.964;7.642;2022-09-13T05:07:53;18.90;99.90
3380;DHT22;1703;51.964;7.642;2022-09-13T05:10:20;18.90;99.90
3380;DHT22;1703;51.964;7.642;2022-09-13T05:12:47;18.90;99.90
3380;DHT22;1703;51.964;7.642;2022-09-13T05:15:15;19.00;99.90
3380;DHT22;1703;51.964;7.642;2022-09-13T05:17:42;19.00;99.90
3380;DHT22;1703;51.964;7.642;2022-09-13T05:23:57;19.00;99.90
3380;DHT22;1703;51.964;7.642;2022-09-13T05:26:26;19.00;99.90
3380;DHT22;1703;51.964;7.642;2022-09-13T05:28:56;19.10;99.90
3380;DHT22;1703;51.964;7.642;2022-09-13T05:31:26;19.10;99.90
3380;DHT22;1703;51.964;7.642;2022-09-13T05:33:55;19.00;99.90
3380;DHT22;1703;51.964;7.642;2022-09-13T05:36:23;19.00;99.90
3380;DHT22;1703;51.964;7.642;2022-09-13T05:38:51;19.00;99.90
3380;DHT22;1703;51.964;7.642;2022-09-13T05:41:18;19.00;99.90
3380;DHT22;1703;51.964;7.642;2022-09-13T05:43:45;19.10;99.90
3380;DHT22;1703;51.964;7.642;2022-09-13T05:46:14;19.00;99.90
3380;DHT22;1703;51.964;7.642;2022-09-13T05:48:50;19.00;99.90
3380;DHT22;1703;51.964;7.642;2022-09-13T05:51:23;19.00;99.90
3380;DHT22;1703;51.964;7.642;2022-09-13T05:53:52;18.90;99.90
3380;DHT22;1703;51.964;7.642;2022-09-13T05:56:22;18.90;99.90
3380;DHT22;1703;51.964;7.642;2022-09-13T05:58:50;18.80;99.90
3380;DHT22;1703;51.964;7.642;2022-09-13T06:01:19;18.90;99.90
3380;DHT22;1703;51.964;7.642;2022-09-13T06:03:48;18.90;99.90
3380;DHT22;1703;51.964;7.642;2022-09-13T06:06:15;18.90;99.90
3380;DHT22;1703;51.964;7.642;2022-09-13T06:08:42;18.90;99.90
3380;DHT22;1703;51.964;7.642;2022-09-13T06:11:13;19.00;99.90
3380;DHT22;1703;51.964;7.642;2022-09-13T06:13:41;19.00;99.90
3380;DHT22;1703;51.964;7.642;2022-09-13T06:16:09;19.00;99.90
3380;DHT22;1703;51.964;7.642;2022-09-13T06:18:37;18.90;99.90
3380;DHT22;1703;51.964;7.642;2022-09-13T06:21:06;18.90;99.90
3380;DHT22;1703;51.964;7.642;2022-09-13T06:23:34;18.90;99.90
3380;DHT22;1703;51.964;7.642;2022-09-13T06:26:02;18.80;99.90
3380;DHT22;1703;51.964;7.642;2022-09-13T06:28:29;19.00;99.90
3380;DHT22;1703;51.964;7.642;2022-09-13T06:31:01;18.90;99.90
3380;DHT22;1703;51.964;7.642;2022-09-13T06:33:28;19.00;99.90
3380;DHT22;1703;51.964;7.642;2022-09-13T06:35:59;19.00;99.90
3380;DHT22;1703;51.964;7.642;2022-09-13T06:38:27;19.00;99.90
3380;DHT22;1703;51.964;7.642;2022-09-13T06:41:01;18.90;99.90
3380;DHT22;1703;51.964;7.642;2022-09-13T06:43:29;18.90;99.90
3380;DHT22;1703;51.964;7.642;2022-09-13T06:45:59;18.90;99.90
3380;DHT22;1703;51.964;7.642;2022-09-13T06:48:30;18.90;99.90
3380;DHT22;1703;51.964;7.642;2022-09-13T06:50:58;19.00;99.90
3380;DHT22;1703;51.964;7.642;2022-09-13T06:53:26;19.00;99.90
3380;DHT22;1703;51.964;7.642;2022-09-13T06:56:01;18.90;99.90
3380;DHT22;1703;51.964;7.642;2022-09-13T06:58:28;19.00;99.90
3380;DHT22;1703;51.964;7.642;2022-09-13T07:01:05;19.00;99.90
3380;DHT22;1703;51.964;7.642;2022-09-13T07:03:34;19.00;99.90
3380;DHT22;1703;51.964;7.642;2022-09-13T07:06:06;19.00;99.90
3380;DHT22;1703;51.964;7.642;2022-09-13T07:08:34;19.00;99.90
3380;DHT22;1703;51.964;7.642;2022-09-13T07:11:01;19.10;99.90
3380;DHT22;1703;51.964;7.642;2022-09-13T07:13:28;19.20;99.90
3380;DHT22;1703;51.964;7.642;2022-09-13T07:15:54;19.20;99.90
3380;DHT22;1703;51.964;7.642;2022-09-13T07:18:21;19.20;99.90
3380;DHT22;1703;51.964;7.642;2022-09-13T07:20:48;19.20;99.90
3380;DHT22;1703;51.964;7.642;2022-09-13T07:23:15;19.30;99.90
3380;DHT22;1703;51.964;7.642;2022-09-13T07:25:43;19.30;99.90
3380;DHT22;1703;51.964;7.642;2022-09-13T07:28:18;19.30;99.90
3380;DHT22;1703;51.964;7.642;2022-09-13T07:30:45;19.30;99.90
3380;DHT22;1703;51.964;7.642;2022-09-13T07:33:12;19.30;99.90
3380;DHT22;1703;51.964;7.642;2022-09-13T07:35:39;19.40;99.90
3380;DHT22;1703;51.964;7.642;2022-09-13T07:38:06;19.50;99.90
3380;DHT22;1703;51.964;7.642;2022-09-13T07:40:32;19.50;99.90
3380;DHT22;1703;51.964;7.642;2022-09-13T07:43:02;19.40;99.90
3380;DHT22;1703;51.964;7.642;2022-09-13T07:45:30;19.50;99.90
3380;DHT22;1703;51.964;7.642;2022-09-13T07:47:56;19.60;99.90
3380;DHT22;1703;51.964;7.642;2022-09-13T07:50:23;19.70;99.90
3380;DHT22;1703;51.964;7.642;2022-09-13T07:52:50;19.60;99.90
3380;DHT22;1703;51.964;7.642;2022-09-13T07:55:17;19.70;99.90
3380;DHT22;1703;51.964;7.642;2022-09-13T07:57:44;19.80;99.90
3380;DHT22;1703;51.964;7.642;2022-09-13T08:00:13;19.70;99.90
3380;DHT22;1703;51.964;7.642;2022-09-13T08:02:41;19.80;99.90
3380;DHT22;1703;51.964;7.642;2022-09-13T08:05:08;19.90;99.90
3380;DHT22;1703;51.964;7.642;2022-09-13T08:07:34;19.90;99.90
3380;DHT22;1703;51.964;7.642;2022-09-13T08:10:01;19.90;99.90
3380;DHT22;1703;51.964;7.642;2022-09-13T08:12:28;19.90;99.90
3380;DHT22;1703;51.964;7.642;2022-09-13T08:14:55;19.90;99.90
3380;DHT22;1703;51.964;7.642;2022-09-13T08:17:23;20.00;99.90
3380;DHT22;1703;51.964;7.642;2022-09-13T08:19:50;20.00;99.90
3380;DHT22;1703;51.964;7.642;2022-09-13T08:22:17;20.00;99.90
3380;DHT22;1703;51.964;7.642;2022-09-13T08:24:44;20.00;99.90
3380;DHT22;1703;51.964;7.642;2022-09-13T08:27:11;20.10;99.90
3380;DHT22;1703;51.964;7.642;2022-09-13T08:29:38;20.10;99.90
3380;DHT22;1703;51.964;7.642;2022-09-13T08:32:05;20.20;99.90
3380;DHT22;1703;51.964;7.642;2022-09-13T08:34:34;20.20;99.90
3380;DHT22;1703;51.964;7.642;2022-09-13T08:37:01;20.30;99.90
3380;DHT22;1703;51.964;7.642;2022-09-13T08:39:28;20.30;99.90
3380;DHT22;1703;51.964;7.642;2022-09-13T08:42:17;20.30;99.90
3380;DHT22;1703;51.964;7.642;2022-09-13T08:44:47;20.40;99.90
3380;DHT22;1703;51.964;7.642;2022-09-13T08:47:25;20.40;99.90
3380;DHT22;1703;51.964;7.642;2022-09-13T08:50:00;20.40;99.90
3380;DHT22;1703;51.964;7.642;2022-09-13T08:52:32;20.40;99.90
3380;DHT22;1703;51.964;7.642;2022-09-13T08:55:03;20.40;99.90
3380;DHT22;1703;51.964;7.642;2022-09-13T08:57:37;20.40;99.90
3380;DHT22;1703;51.964;7.642;2022-09-13T09:00:15;20.40;99.90
3380;DHT22;1703;51.964;7.642;2022-09-13T09:02:56;20.40;99.90
3380;DHT22;1703;51.964;7.642;2022-09-13T09:05:32;20.60;99.90
3380;DHT22;1703;51.964;7.642;2022-09-13T09:08:10;20.70;99.90
3380;DHT22;1703;51.964;7.642;2022-09-13T09:10:43;20.80;99.90
3380;DHT22;1703;51.964;7.642;2022-09-13T09:13:15;20.90;99.90
3380;DHT22;1703;51.964;7.642;2022-09-13T09:15:46;20.90;99.90
3380;DHT22;1703;51.964;7.642;2022-09-13T09:18:17;21.00;99.90
3380;DHT22;1703;51.964;7.642;2022-09-13T09:20:47;21.20;99.90
3380;DHT22;1703;51.964;7.642;2022-09-13T09:23:17;21.20;99.90
3380;DHT22;1703;51.964;7.642;2022-09-13T09:25:45;21.20;99.90
3380;DHT22;1703;51.964;7.642;2022-09-13T09:28:13;21.20;99.90
3380;DHT22;1703;51.964;7.642;2022-09-13T09:30:48;21.40;99.90
3380;DHT22;1703;51.964;7.642;2022-09-13T09:33:27;21.40;99.90
3380;DHT22;1703;51.964;7.642;2022-09-13T09:36:03;21.60;99.90
3380;DHT22;1703;51.964;7.642;2022-09-13T09:38:36;21.70;99.90
3380;DHT22;1703;51.964;7.642;2022-09-13T09:41:11;21.80;99.90
3380;DHT22;1703;51.964;7.642;2022-09-13T09:43:43;21.80;99.90
3380;DHT22;1703;51.964;7.642;2022-09-13T09:46:13;21.90;99.90
3380;DHT22;1703;51.964;7.642;2022-09-13T09:48:47;22.00;99.90
3380;DHT22;1703;51.964;7.642;2022-09-13T09:51:20;22.00;99.90
3380;DHT22;1703;51.964;7.642;2022-09-13T09:53:56;22.10;99.90
3380;DHT22;1703;51.964;7.642;2022-09-13T09:56:27;22.10;99.90
3380;DHT22;1703;51.964;7.642;2022-09-13T09:58:56;22.10;99.90
3380;DHT22;1703;51.964;7.642;2022-09-13T10:01:24;22.10;99.90
3380;DHT22;1703;51.964;7.642;2022-09-13T10:03:57;22.00;99.90
3380;DHT22;1703;51.964;7.642;2022-09-13T10:06:28;22.10;99.90
3380;DHT22;1703;51.964;7.642;2022-09-13T10:08:58;22.10;99.90
3380;DHT22;1703;51.964;7.642;2022-09-13T10:11:47;22.00;99.90
3380;DHT22;1703;51.964;7.642;2022-09-13T10:14:33;21.90;99.90
3380;DHT22;1703;51.964;7.642;2022-09-13T10:17:11;21.80;99.90
3380;DHT22;1703;51.964;7.642;2022-09-13T10:19:39;21.90;99.90
3380;DHT22;1703;51.964;7.642;2022-09-13T10:22:11;22.00;99.90
3380;DHT22;1703;51.964;7.642;2022-09-13T10:24:38;22.10;99.90
3380;DHT22;1703;51.964;7.642;2022-09-13T10:27:21;22.10;99.90
3380;DHT22;1703;51.964;7.642;2022-09-13T10:29:51;22.10;99.90
3380;DHT22;1703;51.964;7.642;2022-09-13T10:32:21;22.10;99.90
3380;DHT22;1703;51.964;7.642;2022-09-13T10:34:49;22.20;99.90
3380;DHT22;1703;51.964;7.642;2022-09-13T10:37:19;22.20;99.90
3380;DHT22;1703;51.964;7.642;2022-09-13T10:39:58;22.20;99.90
3380;DHT22;1703;51.964;7.642;2022-09-13T10:42:27;22.10;99.90
3380;DHT22;1703;51.964;7.642;2022-09-13T10:44:56;22.00;99.90
3380;DHT22;1703;51.964;7.642;2022-09-13T10:47:26;22.00;99.90
3380;DHT22;1703;51.964;7.642;2022-09-13T10:49:55;22.00;99.90
3380;DHT22;1703;51.964;7.642;2022-09-13T10:52:30;22.00;99.90
3380;DHT22;1703;51.964;7.642;2022-09-13T10:55:23;22.00;99.90
3380;DHT22;1703;51.964;7.642;2022-09-13T10:57:51;21.80;99.90
3380;DHT22;1703;51.964;7.642;2022-09-13T11:00:20;21.80;99.90
3380;DHT22;1703;51.964;7.642;2022-09-13T11:03:00;21.80;99.90
3380;DHT22;1703;51.964;7.642;2022-09-13T11:05:37;21.70;99.90
3380;DHT22;1703;51.964;7.642;2022-09-13T11:08:33;21.90;99.90
3380;DHT22;1703;51.964;7.642;2022-09-13T11:11:12;22.00;99.90
3380;DHT22;1703;51.964;7.642;2022-09-13T11:13:51;22.00;99.90
3380;DHT22;1703;51.964;7.642;2022-09-13T11:16:33;22.10;99.90
3380;DHT22;1703;51.964;7.642;2022-09-13T11:19:20;22.10;99.90
3380;DHT22;1703;51.964;7.642;2022-09-13T11:22:00;22.10;99.90
3380;DHT22;1703;51.964;7.642;2022-09-13T11:24:45;22.00;99.90
3380;DHT22;1703;51.964;7.642;2022-09-13T11:27:23;22.00;99.90
3380;DHT22;1703;51.964;7.642;2022-09-13T11:30:07;22.10;99.90
3380;DHT22;1703;51.964;7.642;2022-09-13T11:32:51;22.10;99.90
3380;DHT22;1703;51.964;7.642;2022-09-13T11:35:32;22.00;99.90
3380;DHT22;1703;51.964;7.642;2022-09-13T11:38:10;22.00;99.90
3380;DHT22;1703;51.964;7.642;2022-09-13T11:40:49;22.10;99.90
3380;DHT22;1703;51.964;7.642;2022-09-13T11:43:36;22.00;99.90
3380;DHT22;1703;51.964;7.642;2022-09-13T11:46:10;22.10;99.90
3380;DHT22;1703;51.964;7.642;2022-09-13T11:48:59;22.10;99.90
3380;DHT22;1703;51.964;7.642;2022-09-13T11:51:35;22.00;99.90
3380;DHT22;1703;51.964;7.642;2022-09-13T11:54:18;22.10;99.90
3380;DHT22;1703;51.964;7.642;2022-09-13T11:56:54;22.10;99.90
3380;DHT22;1703;51.964;7.642;2022-09-13T11:59:32;22.10;99.90
3380;DHT22;1703;51.964;7.642;2022-09-13T12:02:11;22.10;99.90
3380;DHT22;1703;51.964;7.642;2022-09-13T12:04:46;22.20;99.90
3380;DHT22;1703;51.964;7.642;2022-09-13T12:07:30;22.20;99.90
3380;DHT22;1703;51.964;7.642;2022-09-13T12:10:02;22.20;99.90
3380;DHT22;1703;51.964;7.642;2022-09-13T12:12:34;22.20;99.90
3380;DHT22;1703;51.964;7.642;2022-09-13T12:15:05;22.20;99.90
3380;DHT22;1703;51.964;7.642;2022-09-13T12:17:37;22.30;99.90
3380;DHT22;1703;51.964;7.642;2022-09-13T12:20:12;22.30;99.90
3380;DHT22;1703;51.964;7.642;2022-09-13T12:22:41;22.40;99.90
3380;DHT22;1703;51.964;7.642;2022-09-13T12:25:20;22.40;99.90
3380;DHT22;1703;51.964;7.642;2022-09-13T12:27:55;22.50;99.90
3380;DHT22;1703;51.964;7.642;2022-09-13T12:30:27;22.50;99.90
3380;DHT22;1703;51.964;7.642;2022-09-13T12:32:59;22.50;99.90
3380;DHT22;1703;51.964;7.642;2022-09-13T12:35:29;22.60;99.90
3380;DHT22;1703;51.964;7.642;2022-09-13T12:41:20;22.70;99.90
3380;DHT22;1703;51.964;7.642;2022-09-13T12:44:10;22.80;99.90
3380;DHT22;1703;51.964;7.642;2022-09-13T12:46:57;22.80;99.90
3380;DHT22;1703;51.964;7.642;2022-09-13T12:49:49;22.80;99.90
3380;DHT22;1703;51.964;7.642;2022-09-13T12:52:33;22.90;99.90
3380;DHT22;1703;51.964;7.642;2022-09-13T12:55:35;22.90;99.90
3380;DHT22;1703;51.964;7.642;2022-09-13T12:58:20;23.00;99.90
3380;DHT22;1703;51.964;7.642;2022-09-13T13:01:08;23.20;99.90
3380;DHT22;1703;51.964;7.642;2022-09-13T13:03:43;23.40;99.90
3380;DHT22;1703;51.964;7.642;2022-09-13T13:06:23;23.50;99.90
3380;DHT22;1703;51.964;7.642;2022-09-13T13:08:53;23.60;99.90
3380;DHT22;1703;51.964;7.642;2022-09-13T13:11:23;23.50;99.90
3380;DHT22;1703;51.964;7.642;2022-09-13T13:13:56;23.40;99.90
3380;DHT22;1703;51.964;7.642;2022-09-13T13:16:27;23.30;99.90
3380;DHT22;1703;51.964;7.642;2022-09-13T13:18:55;23.40;99.90
3380;DHT22;1703;51.964;7.642;2022-09-13T13:21:26;23.50;99.90
3380;DHT22;1703;51.964;7.642;2022-09-13T13:27:38;23.50;99.90
3380;DHT22;1703;51.964;7.642;2022-09-13T13:30:41;23.30;99.90
3380;DHT22;1703;51.964;7.642;2022-09-13T13:33:15;23.20;99.90
3380;DHT22;1703;51.964;7.642;2022-09-13T13:35:43;23.00;99.90
3380;DHT22;1703;51.964;7.642;2022-09-13T13:38:16;23.00;99.90
3380;DHT22;1703;51.964;7.642;2022-09-13T13:40:45;23.00;99.90
3380;DHT22;1703;51.964;7.642;2022-09-13T13:43:31;23.00;99.90
3380;DHT22;1703;51.964;7.642;2022-09-13T13:46:23;23.00;99.90
3380;DHT22;1703;51.964;7.642;2022-09-13T13:48:51;23.10;99.90
3380;DHT22;1703;51.964;7.642;2022-09-13T13:51:25;23.10;99.90
3380;DHT22;1703;51.964;7.642;2022-09-13T13:53:56;23.10;99.90
3380;DHT22;1703;51.964;7.642;2022-09-13T13:56:34;23.30;99.90
3380;DHT22;1703;51.964;7.642;2022-09-13T13:59:13;23.60;99.90
3380;DHT22;1703;51.964;7.642;2022-09-13T14:01:46;23.90;99.90
3380;DHT22;1703;51.964;7.642;2022-09-13T14:07:37;24.20;99.90
3380;DHT22;1703;51.964;7.642;2022-09-13T14:10:12;24.30;99.90
3380;DHT22;1703;51.964;7.642;2022-09-13T14:13:01;24.20;99.90
3380;DHT22;1703;51.964;7.642;2022-09-13T14:15:42;23.90;99.90
3380;DHT22;1703;51.964;7.642;2022-09-13T14:18:44;23.80;99.90
3380;DHT22;1703;51.964;7.642;2022-09-13T14:21:21;23.80;99.90
3380;DHT22;1703;51.964;7.642;2022-09-13T14:23:48;23.80;99.90
3380;DHT22;1703;51.964;7.642;2022-09-13T14:26:16;24.20;99.90
3380;DHT22;1703;51.964;7.642;2022-09-13T14:28:43;24.30;99.90
3380;DHT22;1703;51.964;7.642;2022-09-13T14:31:16;24.30;99.90
3380;DHT22;1703;51.964;7.642;2022-09-13T14:33:44;24.50;99.90
3380;DHT22;1703;51.964;7.642;2022-09-13T14:36:18;24.60;99.90
3380;DHT22;1703;51.964;7.642;2022-09-13T14:38:50;24.60;99.90
3380;DHT22;1703;51.964;7.642;2022-09-13T14:41:20;24.60;99.90
3380;DHT22;1703;51.964;7.642;2022-09-13T14:43:48;24.50;99.90
3380;DHT22;1703;51.964;7.642;2022-09-13T14:46:18;24.40;99.90
3380;DHT22;1703;51.964;7.642;2022-09-13T14:48:49;24.30;99.90
3380;DHT22;1703;51.964;7.642;2022-09-13T14:51:21;24.40;99.90
3380;DHT22;1703;51.964;7.642;2022-09-13T14:53:52;24.40;99.90
3380;DHT22;1703;51.964;7.642;2022-09-13T14:56:27;24.20;99.90
3380;DHT22;1703;51.964;7.642;2022-09-13T14:58:58;24.10;99.90
3380;DHT22;1703;51.964;7.642;2022-09-13T15:01:27;24.00;99.90
3380;DHT22;1703;51.964;7.642;2022-09-13T15:03:56;24.10;99.90
3380;DHT22;1703;51.964;7.642;2022-09-13T15:06:27;24.00;99.90
3380;DHT22;1703;51.964;7.642;2022-09-13T15:08:57;23.90;99.90
3380;DHT22;1703;51.964;7.642;2022-09-13T15:11:31;23.70;99.90
3380;DHT22;1703;51.964;7.642;2022-09-13T15:14:26;23.70;99.90
3380;DHT22;1703;51.964;7.642;2022-09-13T15:16:56;23.60;99.90
3380;DHT22;1703;51.964;7.642;2022-09-13T15:19:30;23.50;99.90
3380;DHT22;1703;51.964;7.642;2022-09-13T15:22:14;23.40;99.90
3380;DHT22;1703;51.964;7.642;2022-09-13T15:24:44;23.30;99.90
3380;DHT22;1703;51.964;7.642;2022-09-13T15:27:24;23.30;99.90
3380;DHT22;1703;51.964;7.642;2022-09-13T15:29:56;23.20;99.90
3380;DHT22;1703;51.964;7.642;2022-09-13T15:32:32;23.30;99.90
3380;DHT22;1703;51.964;7.642;2022-09-13T15:35:00;23.20;99.90
3380;DHT22;1703;51.964;7.642;2022-09-13T15:37:33;23.30;99.90
3380;DHT22;1703;51.964;7.642;2022-09-13T15:40:14;23.40;99.90
3380;DHT22;1703;51.964;7.642;2022-09-13T15:42:47;23.50;99.90
3380;DHT22;1703;51.964;7.642;2022-09-13T15:45:16;23.40;99.90
3380;DHT22;1703;51.964;7.642;2022-09-13T15:47:45;23.30;99.90
3380;DHT22;1703;51.964;7.642;2022-09-13T15:50:24;23.20;99.90
3380;DHT22;1703;51.964;7.642;2022-09-13T15:52:57;23.20;99.90
3380;DHT22;1703;51.964;7.642;2022-09-13T15:55:27;23.20;99.90
3380;DHT22;1703;51.964;7.642;2022-09-13T15:57:56;23.20;99.90
3380;DHT22;1703;51.964;7.642;2022-09-13T16:00:24;23.20;99.90
3380;DHT22;1703;51.964;7.642;2022-09-13T16:02:51;23.10;99.90
3380;DHT22;1703;51.964;7.642;2022-09-13T16:05:18;23.20;99.90
3380;DHT22;1703;51.964;7.642;2022-09-13T16:07:46;23.20;99.90
3380;DHT22;1703;51.964;7.642;2022-09-13T16:10:37;23.20;99.90
3380;DHT22;1703;51.964;7.642;2022-09-13T16:13:04;23.10;99.90
3380;DHT22;1703;51.964;7.642;2022-09-13T16:15:31;23.10;99.90
3380;DHT22;1703;51.964;7.642;2022-09-13T16:18:00;23.10;99.90
3380;DHT22;1703;51.964;7.642;2022-09-13T16:20:27;23.10;99.90
3380;DHT22;1703;51.964;7.642;2022-09-13T16:25:31;23.10;99.90
3380;DHT22;1703;51.964;7.642;2022-09-13T16:26:18;23.10;99.90
3380;DHT22;1703;51.964;7.642;2022-09-13T16:28:44;23.00;99.90
3380;DHT22;1703;51.964;7.642;2022-09-13T16:31:20;23.00;99.90
3380;DHT22;1703;51.964;7.642;2022-09-13T16:33:53;23.00;99.90
3380;DHT22;1703;51.964;7.642;2022-09-13T16:36:45;22.90;99.90
3380;DHT22;1703;51.964;7.642;2022-09-13T16:39:12;22.80;99.90
3380;DHT22;1703;51.964;7.642;2022-09-13T16:41:40;22.80;99.90
3380;DHT22;1703;51.964;7.642;2022-09-13T16:44:07;22.80;99.90
3380;DHT22;1703;51.964;7.642;2022-09-13T16:46:34;22.80;99.90
3380;DHT22;1703;51.964;7.642;2022-09-13T16:49:02;22.90;99.90
3380;DHT22;1703;51.964;7.642;2022-09-13T16:51:29;22.80;99.90
3380;DHT22;1703;51.964;7.642;2022-09-13T16:53:56;22.80;99.90
3380;DHT22;1703;51.964;7.642;2022-09-13T16:56:24;22.90;99.90